createdAt,value
2023-06-25T00:02:08.383Z,96897.00
2023-06-25T00:06:11.521Z,96902.00
2023-06-25T00:10:15.221Z,96894.00
2023-06-25T00:14:18.274Z,96890.00
2023-06-25T00:18:22.774Z,96883.00
2023-06-25T00:22:25.853Z,96875.00
2023-06-25T00:26:29.003Z,96880.00
2023-06-25T00:30:34.463Z,96884.00
2023-06-25T00:34:42.833Z,96881.00
2023-06-25T00:38:46.287Z,96891.00
2023-06-25T00:42:50.345Z,96883.00
2023-06-25T00:46:55.385Z,96881.00
2023-06-25T00:51:05.078Z,96878.00
2023-06-25T00:55:09.543Z,96872.00
2023-06-25T00:59:13.943Z,96870.00
2023-06-25T01:03:28.588Z,96859.00
2023-06-25T01:07:37.767Z,96859.00
2023-06-25T01:11:40.889Z,96855.00
2023-06-25T01:15:44.981Z,96855.00
2023-06-25T01:19:51.983Z,96851.00
2023-06-25T01:23:56.702Z,96852.00
2023-06-25T01:28:05.653Z,96844.00
2023-06-25T01:32:09.774Z,96841.00
2023-06-25T01:36:13.627Z,96843.00
2023-06-25T01:40:18.512Z,96838.00
2023-06-25T01:44:28.290Z,96830.00
2023-06-25T01:48:32.751Z,96832.00
2023-06-25T01:52:35.837Z,96819.00
2023-06-25T01:56:40.546Z,96813.00
2023-06-25T02:00:46.051Z,96802.00
2023-06-25T02:04:51.949Z,96798.00
2023-06-25T02:09:00.045Z,96801.00
2023-06-25T02:13:04.463Z,96798.00
2023-06-25T02:17:07.871Z,96794.00
2023-06-25T02:21:11.113Z,96795.00
2023-06-25T02:25:16.289Z,96794.00
2023-06-25T02:29:20.937Z,96786.00
2023-06-25T02:33:23.998Z,96792.00
2023-06-25T02:37:30.657Z,96789.00
2023-06-25T02:41:35.846Z,96780.00
2023-06-25T02:45:40.282Z,96785.00
2023-06-25T02:49:46.887Z,96787.00
2023-06-25T02:53:49.951Z,96786.00
2023-06-25T02:57:55.602Z,96781.00
2023-06-25T03:02:02.485Z,96782.00
2023-06-25T03:06:05.675Z,96777.00
2023-06-25T03:10:14.701Z,96772.00
2023-06-25T03:14:34.114Z,96769.00
2023-06-25T03:18:39.280Z,96772.00
2023-06-25T03:22:42.778Z,96775.00
2023-06-25T03:26:48.058Z,96771.00
2023-06-25T03:30:51.180Z,96764.00
2023-06-25T03:34:56.659Z,96776.00
2023-06-25T03:39:02.053Z,96770.00
2023-06-25T03:43:05.291Z,96769.00
2023-06-25T03:47:08.724Z,96775.00
2023-06-25T03:51:17.667Z,96775.00
2023-06-25T03:55:21.114Z,96766.00
2023-06-25T03:59:30.823Z,96766.00
2023-06-25T04:03:34.841Z,96769.00
2023-06-25T04:07:39.296Z,96770.00
2023-06-25T04:11:42.625Z,96781.00
2023-06-25T04:15:45.754Z,96771.00
2023-06-25T04:19:51.086Z,96771.00
2023-06-25T04:23:58.532Z,96767.00
2023-06-25T04:28:03.263Z,96762.00
2023-06-25T04:32:08.300Z,96772.00
2023-06-25T04:36:12.774Z,96780.00
2023-06-25T04:40:21.165Z,96769.00
2023-06-25T04:44:27.531Z,96769.00
2023-06-25T04:48:33.076Z,96769.00
2023-06-25T04:52:39.123Z,96766.00
2023-06-25T04:56:43.741Z,96760.00
2023-06-25T05:00:58.965Z,96766.00
2023-06-25T05:05:08.042Z,96764.00
2023-06-25T05:09:11.094Z,96772.00
2023-06-25T05:13:18.305Z,96767.00
2023-06-25T05:17:21.545Z,96774.00
2023-06-25T05:21:26.003Z,96767.00
2023-06-25T05:25:32.318Z,96771.00
2023-06-25T05:29:37.145Z,96770.00
2023-06-25T05:33:40.392Z,96766.00
2023-06-25T05:37:45.423Z,96778.00
2023-06-25T05:41:48.588Z,96781.00
2023-06-25T05:45:53.056Z,96781.00
2023-06-25T05:49:57.978Z,96781.00
2023-06-25T05:54:01.067Z,96776.00
2023-06-25T05:58:05.343Z,96779.00
2023-06-25T06:02:13.661Z,96782.00
2023-06-25T06:06:17.524Z,96788.00
2023-06-25T06:10:21.290Z,96794.00
2023-06-25T06:14:24.541Z,96797.00
2023-06-25T06:18:32.298Z,96793.00
2023-06-25T06:22:35.365Z,96787.00
2023-06-25T06:26:39.799Z,96787.00
2023-06-25T06:30:45.311Z,96785.00
2023-06-25T06:34:50.242Z,96794.00
2023-06-25T06:38:53.305Z,96792.00
2023-06-25T06:42:57.159Z,96793.00
2023-06-25T06:47:00.630Z,96799.00
2023-06-25T06:51:05.180Z,96796.00
2023-06-25T06:55:09.222Z,96798.00
2023-06-25T06:59:12.268Z,96797.00
2023-06-25T07:03:15.282Z,96796.00
2023-06-25T07:07:22.450Z,96795.00
2023-06-25T07:11:27.404Z,96783.00
2023-06-25T07:15:31.458Z,96790.00
2023-06-25T07:19:36.640Z,96799.00
2023-06-25T07:23:44.578Z,96790.00
2023-06-25T07:27:47.922Z,96788.00
2023-06-25T07:31:51.013Z,96792.00
2023-06-25T07:35:54.091Z,96795.00
2023-06-25T07:39:59.464Z,96784.00
2023-06-25T07:44:13.720Z,96786.00
2023-06-25T07:48:27.644Z,96787.00
2023-06-25T07:52:30.722Z,96782.00
2023-06-25T07:56:35.171Z,96765.00
2023-06-25T08:00:41.215Z,96766.00
2023-06-25T08:04:46.346Z,96772.00
2023-06-25T08:08:49.713Z,96767.00
2023-06-25T08:12:56.121Z,96773.00
2023-06-25T08:16:59.251Z,96776.00
2023-06-25T08:21:06.250Z,96768.00
2023-06-25T08:25:21.413Z,96773.00
2023-06-25T08:29:34.770Z,96772.00
2023-06-25T08:33:40.527Z,96768.00
2023-06-25T08:37:43.986Z,96767.00
2023-06-25T08:41:49.974Z,96771.00
2023-06-25T08:45:54.778Z,96771.00
2023-06-25T08:49:57.816Z,96771.00
2023-06-25T08:54:00.918Z,96768.00
2023-06-25T08:58:07.092Z,96760.00
2023-06-25T09:02:11.755Z,96765.00
2023-06-25T09:06:18.490Z,96753.00
2023-06-25T09:10:24.579Z,96758.00
2023-06-25T09:14:27.858Z,96757.00
2023-06-25T09:18:32.542Z,96757.00
2023-06-25T09:22:35.901Z,96752.00
2023-06-25T09:26:50.949Z,96750.00
2023-06-25T09:30:58.372Z,96747.00
2023-06-25T09:35:06.525Z,96746.00
2023-06-25T09:39:14.176Z,96744.00
2023-06-25T09:43:17.545Z,96742.00
2023-06-25T09:47:23.168Z,96735.00
2023-06-25T09:51:33.469Z,96732.00
2023-06-25T09:55:38.998Z,96743.00
2023-06-25T09:59:42.279Z,96742.00
2023-06-25T10:03:45.887Z,96746.00
2023-06-25T10:07:53.758Z,96740.00
2023-06-25T10:11:58.938Z,96735.00
2023-06-25T10:16:08.694Z,96735.00
2023-06-25T10:20:12.367Z,96728.00
2023-06-25T10:24:16.916Z,96729.00
2023-06-25T10:28:20.362Z,96726.00
2023-06-25T10:32:26.898Z,96718.00
2023-06-25T10:36:30.451Z,96723.00
2023-06-25T10:40:37.086Z,96722.00
2023-06-25T10:44:41.286Z,96715.00
2023-06-25T10:48:49.117Z,96709.00
2023-06-25T10:52:55.489Z,96709.00
2023-06-25T10:57:19.275Z,96695.00
2023-06-25T11:01:22.413Z,96699.00
2023-06-25T11:05:36.121Z,96698.00
2023-06-25T11:09:43.964Z,96689.00
2023-06-25T11:13:53.881Z,96688.00
2023-06-25T11:18:00.086Z,96683.00
2023-06-25T11:22:14.122Z,96675.00
2023-06-25T11:26:20.626Z,96667.00
2023-06-25T11:30:28.944Z,96675.00
2023-06-25T11:34:35.054Z,96667.00
2023-06-25T11:38:47.090Z,96661.00
2023-06-25T11:42:50.235Z,96654.00
2023-06-25T11:46:55.090Z,96652.00
2023-06-25T11:51:06.966Z,96654.00
2023-06-25T11:55:11.157Z,96654.00
2023-06-25T11:59:15.372Z,96652.00
2023-06-25T12:03:22.956Z,96643.00
2023-06-25T12:07:26.666Z,96647.00
2023-06-25T12:11:29.913Z,96632.00
2023-06-25T12:15:32.932Z,96625.00
2023-06-25T12:19:37.352Z,96626.00
2023-06-25T12:23:42.229Z,96619.00
2023-06-25T12:27:46.845Z,96619.00
2023-06-25T12:31:53.066Z,96614.00
2023-06-25T12:35:57.466Z,96607.00
2023-06-25T12:40:00.567Z,96606.00
2023-06-25T12:44:04.553Z,96605.00
2023-06-25T12:48:07.874Z,96596.00
2023-06-25T12:52:12.517Z,96594.00
2023-06-25T12:56:17.271Z,96591.00
2023-06-25T13:00:33.931Z,96592.00
2023-06-25T13:04:45.992Z,96591.00
2023-06-25T13:08:53.197Z,96583.00
2023-06-25T13:12:56.242Z,96583.00
2023-06-25T13:16:59.274Z,96572.00
2023-06-25T13:21:06.278Z,96569.00
2023-06-25T13:25:11.941Z,96568.00
2023-06-25T13:29:18.518Z,96565.00
2023-06-25T13:33:23.851Z,96560.00
2023-06-25T13:37:30.580Z,96563.00
2023-06-25T13:41:36.181Z,96563.00
2023-06-25T13:45:39.499Z,96559.00
2023-06-25T13:49:45.171Z,96559.00
2023-06-25T13:53:54.496Z,96554.00
2023-06-25T13:57:59.398Z,96546.00
2023-06-25T14:02:02.611Z,96552.00
2023-06-25T14:06:12.234Z,96554.00
2023-06-25T14:10:17.784Z,96546.00
2023-06-25T14:14:22.485Z,96539.00
2023-06-25T14:18:25.990Z,96539.00
2023-06-25T14:22:29.398Z,96543.00
2023-06-25T14:26:32.740Z,96534.00
2023-06-25T14:30:37.217Z,96535.00
2023-06-25T14:34:40.643Z,96531.00
2023-06-25T14:38:46.727Z,96525.00
2023-06-25T14:42:52.803Z,96522.00
2023-06-25T14:46:58.548Z,96522.00
2023-06-25T14:51:03.771Z,96517.00
2023-06-25T14:55:07.131Z,96520.00
2023-06-25T14:59:13.504Z,96510.00
2023-06-25T15:03:18.160Z,96510.00
2023-06-25T15:07:26.072Z,96512.00
2023-06-25T15:11:33.597Z,96507.00
2023-06-25T15:15:45.799Z,96508.00
2023-06-25T15:19:51.061Z,96501.00
2023-06-25T15:23:57.253Z,96496.00
2023-06-25T15:28:00.919Z,96489.00
2023-06-25T15:32:06.296Z,96488.00
2023-06-25T15:36:17.134Z,96489.00
2023-06-25T15:40:26.383Z,96478.00
2023-06-25T15:44:30.086Z,96475.00
2023-06-25T15:48:34.989Z,96479.00
2023-06-25T15:52:40.565Z,96468.00
2023-06-25T15:56:43.836Z,96463.00
2023-06-25T16:00:48.229Z,96463.00
2023-06-25T16:04:51.345Z,96460.00
2023-06-25T16:09:01.880Z,96454.00
2023-06-25T16:13:10.179Z,96459.00
2023-06-25T16:17:16.181Z,96457.00
2023-06-25T16:21:22.051Z,96456.00
2023-06-25T16:25:26.921Z,96449.00
2023-06-25T16:29:30.282Z,96450.00
2023-06-25T16:33:35.555Z,96440.00
2023-06-25T16:37:39.170Z,96446.00
2023-06-25T16:41:43.737Z,96441.00
2023-06-25T16:45:47.171Z,96441.00
2023-06-25T16:49:50.778Z,96440.00
2023-06-25T16:54:03.112Z,96435.00
2023-06-25T16:58:07.614Z,96437.00
2023-06-25T17:02:11.088Z,96440.00
2023-06-25T17:06:14.276Z,96440.00
2023-06-25T17:10:22.283Z,96432.00
2023-06-25T17:14:28.622Z,96436.00
2023-06-25T17:18:38.151Z,96438.00
2023-06-25T17:22:44.153Z,96435.00
2023-06-25T17:26:50.168Z,96436.00
2023-06-25T17:30:57.834Z,96444.00
2023-06-25T17:35:01.159Z,96442.00
2023-06-25T17:39:04.447Z,96444.00
2023-06-25T17:43:07.742Z,96443.00
2023-06-25T17:47:12.690Z,96441.00
2023-06-25T17:51:15.873Z,96439.00
2023-06-25T17:55:20.950Z,96451.00
2023-06-25T17:59:29.013Z,96449.00
2023-06-25T18:03:34.463Z,96441.00
2023-06-25T18:07:41.483Z,96443.00
2023-06-25T18:11:49.286Z,96450.00
2023-06-25T18:15:52.366Z,96441.00
2023-06-25T18:19:58.535Z,96447.00
2023-06-25T18:24:06.329Z,96449.00
2023-06-25T18:28:14.777Z,96444.00
2023-06-25T18:32:17.839Z,96441.00
2023-06-25T18:36:25.703Z,96443.00
2023-06-25T18:40:28.804Z,96449.00
2023-06-25T18:44:31.854Z,96439.00
2023-06-25T18:48:35.114Z,96447.00
2023-06-25T18:52:39.609Z,96442.00
2023-06-25T18:56:43.881Z,96446.00
2023-06-25T19:00:47.474Z,96446.00
2023-06-25T19:04:51.990Z,96440.00
2023-06-25T19:08:59.228Z,96443.00
2023-06-25T19:13:02.282Z,96447.00
2023-06-25T19:17:07.871Z,96443.00
2023-06-25T19:21:11.887Z,96442.00
2023-06-25T19:25:16.482Z,96440.00
2023-06-25T19:29:19.758Z,96441.00
2023-06-25T19:33:23.040Z,96435.00
2023-06-25T19:37:27.820Z,96445.00
2023-06-25T19:41:35.252Z,96451.00
2023-06-25T19:45:39.230Z,96455.00
2023-06-25T19:49:47.018Z,96445.00
2023-06-25T19:53:50.048Z,96447.00
2023-06-25T19:58:11.786Z,96448.00
2023-06-25T20:02:15.047Z,96449.00
2023-06-25T20:06:18.258Z,96454.00
2023-06-25T20:10:21.554Z,96452.00
2023-06-25T20:14:33.564Z,96449.00
2023-06-25T20:18:39.114Z,96453.00
2023-06-25T20:22:44.862Z,96456.00
2023-06-25T20:26:54.415Z,96457.00
2023-06-25T20:31:01.401Z,96449.00
2023-06-25T20:35:06.927Z,96450.00
2023-06-25T20:39:10.166Z,96447.00
2023-06-25T20:43:16.162Z,96461.00
2023-06-25T20:47:24.031Z,96458.00
2023-06-25T20:51:27.210Z,96458.00
2023-06-25T20:55:30.264Z,96464.00
2023-06-25T20:59:33.500Z,96458.00
2023-06-25T21:03:40.502Z,96458.00
2023-06-25T21:07:45.762Z,96459.00
2023-06-25T21:11:51.498Z,96463.00
2023-06-25T21:15:57.147Z,96467.00
2023-06-25T21:20:04.511Z,96459.00
2023-06-25T21:24:08.897Z,96463.00
2023-06-25T21:28:15.068Z,96466.00
2023-06-25T21:32:22.961Z,96474.00
2023-06-25T21:36:28.480Z,96469.00
2023-06-25T21:40:31.993Z,96485.00
2023-06-25T21:44:35.867Z,96484.00
2023-06-25T21:48:38.900Z,96470.00
2023-06-25T21:52:46.836Z,96483.00
2023-06-25T21:56:52.816Z,96480.00
2023-06-25T22:00:56.184Z,96471.00
2023-06-25T22:05:04.784Z,96473.00
2023-06-25T22:09:11.149Z,96466.00
2023-06-25T22:13:19.041Z,96460.00
2023-06-25T22:17:25.452Z,96461.00
2023-06-25T22:21:29.595Z,96465.00
2023-06-25T22:25:34.068Z,96457.00
2023-06-25T22:29:43.335Z,96465.00
2023-06-25T22:33:46.603Z,96458.00
2023-06-25T22:37:50.132Z,96462.00
2023-06-25T22:41:54.616Z,96457.00
2023-06-25T22:45:57.703Z,96457.00
2023-06-25T22:50:00.830Z,96452.00
2023-06-25T22:54:04.217Z,96461.00
2023-06-25T22:58:13.546Z,96457.00
2023-06-25T23:02:17.154Z,96451.00
2023-06-25T23:06:24.515Z,96447.00
2023-06-25T23:10:31.368Z,96446.00
2023-06-25T23:14:36.945Z,96435.00
2023-06-25T23:18:40.231Z,96435.00
2023-06-25T23:22:43.262Z,96431.00
2023-06-25T23:26:50.293Z,96432.00
2023-06-25T23:30:55.330Z,96428.00
2023-06-25T23:34:59.713Z,96427.00
2023-06-25T23:39:03.198Z,96435.00
2023-06-25T23:43:07.515Z,96434.00
2023-06-25T23:47:12.039Z,96439.00
2023-06-25T23:51:15.055Z,96434.00
2023-06-25T23:55:20.377Z,96442.00
2023-06-25T23:59:25.826Z,96438.00
